Time;durP1;ratioP1;P1;durP2;ratioP2;P2;SDS_P1;SDS_P2;PMS_P1;PMS_P2;Temp;Humidity;BMP_temperature;BMP_pressure;BME280_temperature;BME280_humidity;BME280_pressure;Samples;Min_cycle;Max_cycle;Signal;HPM_P1;HPM_P2
2022/02/03 00:00:24;;;;;;;8.48;3.97;;;;;;;20.78;36.34;101860.66;5019290;28;20046;-64
2022/02/03 00:03:08;;;;;;;7.95;3.58;;;;;;;20.80;36.56;101870.09;5015548;28;20041;-64
2022/02/03 00:05:44;;;;;;;7.75;3.72;;;;;;;20.75;36.63;101864.47;5026599;28;20048;-63
2022/02/03 00:24:31;;;;;;;10.20;3.65;;;;;;;20.59;37.04;101848.53;5017182;28;20384;-64
2022/02/03 00:27:13;;;;;;;12.85;3.97;;;;;;;20.55;37.04;101843.72;5021544;28;20120;-63
2022/02/03 00:30:00;;;;;;;8.65;4.25;;;;;;;20.52;37.17;101847.50;5017724;28;20187;-64
2022/02/03 00:48:56;;;;;;;8.18;3.35;;;;;;;20.38;37.47;101832.22;5016394;28;20372;-64
2022/02/03 00:51:23;;;;;;;7.55;4.07;;;;;;;20.39;37.46;101812.69;5016439;28;20067;-64
2022/02/03 00:53:49;;;;;;;8.55;4.28;;;;;;;20.30;37.47;101805.72;5023414;28;20441;-64
2022/02/03 00:56:26;;;;;;;7.05;4.20;;;;;;;20.35;37.58;101822.78;5018200;28;20065;-63
2022/02/03 00:58:59;;;;;;;8.88;3.85;;;;;;;20.31;37.58;101816.16;5016974;28;20112;-64
2022/02/03 01:01:30;;;;;;;10.07;3.70;;;;;;;20.27;37.68;101827.19;5016582;28;20120;-64
2022/02/03 01:04:00;;;;;;;8.70;4.05;;;;;;;20.24;37.73;101812.47;5023060;28;20041;-64
2022/02/03 01:06:29;;;;;;;10.07;4.07;;;;;;;20.21;37.72;101808.31;5016855;28;20037;-64
2022/02/03 01:08:56;;;;;;;8.52;3.97;;;;;;;20.23;37.68;101816.94;5030602;28;20114;-64
2022/02/03 01:11:28;;;;;;;7.07;3.67;;;;;;;20.24;37.62;101817.75;5016754;28;20034;-64
2022/02/03 01:14:06;;;;;;;8.75;3.55;;;;;;;20.15;37.72;101816.91;5018267;28;20603;-64
2022/02/03 01:43:14;;;;;;;;;;;;;;;20.11;37.85;101807.63;5017746;28;20516;-64
2022/02/03 01:43:33;;;;;;;7.55;3.88;;;;;;;19.85;37.99;101769.81;5018658;28;21075;-64
2022/02/03 01:46:10;;;;;;;6.65;3.53;;;;;;;20.07;38.04;101785.13;5019738;28;20037;-64
2022/02/03 01:49:05;;;;;;;8.50;3.42;;;;;;;19.99;38.17;101787.72;5020534;28;20048;-64
2022/02/03 01:51:40;;;;;;;6.53;3.15;;;;;;;19.94;38.23;101790.03;5019917;28;20495;-64
2022/02/03 01:54:06;;;;;;;6.10;3.75;;;;;;;19.92;38.08;101784.03;5015508;28;20109;-64
2022/02/03 01:56:49;;;;;;;6.13;3.28;;;;;;;19.97;38.08;101792.34;5017574;28;20040;-64
2022/02/03 01:59:21;;;;;;;7.05;3.58;;;;;;;19.98;38.25;101795.81;5032602;28;20042;-64
2022/02/03 02:01:51;;;;;;;8.23;3.38;;;;;;;19.99;38.18;101790.38;5020345;28;20021;-64
2022/02/03 02:04:37;;;;;;;8.02;3.50;;;;;;;20.00;38.16;101789.38;5016750;28;20081;-63
2022/02/03 02:07:26;;;;;;;4.93;2.97;;;;;;;19.95;38.19;101782.94;5014330;28;20049;-64
2022/02/03 02:10:33;;;;;;;5.88;3.50;;;;;;;19.86;38.10;101758.25;5016880;28;20055;-64
2022/02/03 02:13:20;;;;;;;6.60;3.88;;;;;;;19.95;38.15;101767.06;5021993;28;20119;-64
2022/02/03 02:16:28;;;;;;;5.65;3.38;;;;;;;19.88;38.35;101758.91;5015872;28;20151;-64
2022/02/03 02:19:08;;;;;;;5.68;3.15;;;;;;;19.92;38.10;101761.06;5015558;28;20041;-64
2022/02/03 02:39:12;;;;;;;5.97;3.50;;;;;;;19.83;38.30;101738.25;5015583;28;20076;-64
2022/02/03 02:45:09;;;;;;;7.22;3.92;;;;;;;19.76;38.49;101729.31;5017480;28;20044;-64
2022/02/03 02:48:07;;;;;;;6.65;4.20;;;;;;;19.77;38.31;101733.59;5012108;28;20364;-64
2022/02/03 02:50:50;;;;;;;7.43;3.75;;;;;;;19.80;38.44;101727.16;5014105;28;20052;-64
2022/02/03 03:30:07;;;;;;;7.90;4.63;;;;;;;19.60;38.84;101681.66;5013291;28;20385;-64
2022/02/03 03:33:03;;;;;;;6.50;3.75;;;;;;;19.52;38.47;101671.00;5015392;28;21536;-64
2022/02/03 03:35:38;;;;;;;6.30;4.10;;;;;;;19.65;38.75;101689.09;5010852;28;20502;-64
2022/02/03 03:38:06;;;;;;;7.93;4.57;;;;;;;19.57;38.66;101677.50;5013007;28;20383;-64
2022/02/03 03:40:33;;;;;;;8.60;4.28;;;;;;;19.61;38.73;101667.44;5012231;28;20390;-64
2022/02/03 03:43:07;;;;;;;8.55;4.45;;;;;;;19.57;38.82;101661.66;5011674;28;20040;-64
2022/02/03 03:45:35;;;;;;;6.97;3.83;;;;;;;19.59;38.76;101667.63;5012556;28;20029;-64
2022/02/03 03:48:05;;;;;;;7.65;4.00;;;;;;;19.54;38.71;101661.94;5011587;28;20029;-64
2022/02/03 03:50:35;;;;;;;7.25;4.10;;;;;;;19.54;38.94;101669.06;5017194;28;22151;-64
2022/02/03 03:53:09;;;;;;;9.38;4.30;;;;;;;19.59;38.79;101666.78;5024177;28;20041;-64
2022/02/03 05:03:19;;;;;;;10.20;5.10;;;;;;;19.38;39.14;101563.28;5014495;28;20136;-64
2022/02/03 05:12:14;;;;;;;7.30;3.90;;;;;;;19.35;39.21;101560.97;5021477;28;20505;-64
2022/02/03 05:21:23;;;;;;;5.57;3.47;;;;;;;19.37;39.15;101559.81;5017242;28;20045;-64
2022/02/03 06:05:34;;;;;;;5.28;3.80;;;;;;;21.04;37.15;101540.16;5018498;28;20029;-64
2022/02/03 06:13:43;;;;;;;5.30;3.22;;;;;;;20.78;37.62;101541.19;5017094;28;20061;-64
2022/02/03 06:21:39;;;;;;;6.85;3.83;;;;;;;20.76;37.79;101529.94;5016242;28;20041;-64
2022/02/03 06:24:31;;;;;;;8.25;3.65;;;;;;;20.74;37.84;101521.34;5014698;28;20038;-64
2022/02/03 06:29:38;;;;;;;7.95;4.00;;;;;;;21.10;37.27;101523.56;5012232;28;20395;-64
2022/02/03 06:32:04;;;;;;;6.30;4.15;;;;;;;21.25;37.37;101513.13;5019445;28;20041;-64
2022/02/03 06:34:29;;;;;;;5.95;4.07;;;;;;;21.34;37.09;101512.06;5014431;28;20102;-64
2022/02/03 06:36:55;;;;;;;6.88;4.20;;;;;;;21.46;36.91;101500.09;5017699;28;20041;-64
2022/02/03 06:39:26;;;;;;;7.10;4.18;;;;;;;21.50;36.76;101505.88;5012332;28;20044;-64
2022/02/03 06:41:55;;;;;;;10.68;4.35;;;;;;;21.52;36.99;101515.28;5021143;28;20399;-64
2022/02/03 06:44:27;;;;;;;10.27;4.50;;;;;;;21.44;36.74;101515.34;5011578;28;20553;-64
2022/02/03 06:46:54;;;;;;;9.15;4.90;;;;;;;21.31;37.13;101515.91;5016698;28;20038;-64
2022/02/03 06:49:36;;;;;;;8.02;4.43;;;;;;;21.29;37.17;101523.19;5012438;28;20045;-64
2022/02/03 06:52:08;;;;;;;10.55;4.57;;;;;;;21.22;37.45;101521.38;5019058;28;20033;-64
2022/02/03 06:54:57;;;;;;;8.55;4.60;;;;;;;21.28;37.32;101512.78;5011835;28;20622;-64
2022/02/03 06:57:41;;;;;;;11.60;5.10;;;;;;;21.16;37.42;101503.50;5015595;28;20049;-64
2022/02/03 07:00:16;;;;;;;9.50;5.15;;;;;;;21.27;37.49;101508.47;5014322;28;20045;-64
2022/02/03 07:02:44;;;;;;;8.15;4.60;;;;;;;21.24;37.34;101492.91;5016583;28;20498;-64
2022/02/03 07:05:09;;;;;;;12.20;5.18;;;;;;;21.32;37.09;101500.81;5015321;28;20047;-64
2022/02/03 07:07:39;;;;;;;7.88;4.93;;;;;;;21.34;37.05;101494.34;5010738;28;20041;-64
2022/02/03 07:10:09;;;;;;;10.20;4.97;;;;;;;21.22;36.92;101471.06;5010319;28;20069;-64
2022/02/03 07:12:35;;;;;;;;;;;;;;;21.34;36.93;101497.00;5018561;28;20107;-64
2022/02/03 07:15:04;;;;;;;9.20;5.13;;;;;;;21.32;37.00;101487.56;5024582;28;19917;-64
2022/02/03 07:17:30;;;;;;;11.50;5.57;;;;;;;21.31;37.39;101492.06;5022069;28;20606;-64
2022/02/03 07:20:01;;;;;;;9.48;5.43;;;;;;;21.29;37.26;101485.28;5016580;28;20447;-64
2022/02/03 07:22:27;;;;;;;8.77;5.07;;;;;;;21.30;37.11;101476.34;5015977;28;20041;-64
2022/02/03 07:24:52;;;;;;;9.32;5.55;;;;;;;21.36;37.17;101478.28;5017693;28;20036;-64
2022/02/03 07:27:19;;;;;;;8.75;5.53;;;;;;;21.35;37.01;101473.97;5020720;28;20037;-64
2022/02/03 07:29:45;;;;;;;12.88;6.00;;;;;;;21.34;37.02;101478.44;5017796;28;20037;-64
2022/02/03 07:32:10;;;;;;;13.25;6.35;;;;;;;21.34;37.17;101486.41;5013902;28;20049;-64
2022/02/03 07:34:36;;;;;;;9.38;5.50;;;;;;;21.39;36.90;101472.66;5015528;28;20571;-64
2022/02/03 07:37:02;;;;;;;9.77;5.97;;;;;;;21.32;37.19;101479.63;5014809;28;20053;-64
2022/02/03 07:39:27;;;;;;;10.85;5.82;;;;;;;21.32;37.36;101479.63;5015812;28;20429;-64
2022/02/03 07:41:53;;;;;;;10.55;5.60;;;;;;;21.28;37.06;101478.34;5014374;28;20045;-64
2022/02/03 07:44:18;;;;;;;9.98;5.85;;;;;;;21.26;37.05;101475.88;5017063;28;20467;-64
2022/02/03 07:46:44;;;;;;;11.55;5.78;;;;;;;21.20;37.42;101467.75;5015554;28;20116;-64
2022/02/03 07:49:09;;;;;;;10.68;6.57;;;;;;;21.15;37.58;101467.44;5019558;28;20490;-65
2022/02/03 07:51:35;;;;;;;13.15;5.85;;;;;;;20.64;38.50;101453.72;4990144;28;20525;-62
2022/02/03 07:54:04;;;;;;;8.93;5.57;;;;;;;20.58;38.67;101467.63;5017902;28;20041;-63
2022/02/03 07:56:30;;;;;;;8.63;5.32;;;;;;;20.64;38.66;101464.31;5014676;28;20462;-62
2022/02/03 07:58:56;;;;;;;14.65;6.63;;;;;;;20.94;38.10;101460.91;5024174;28;20133;-67
2022/02/03 08:01:21;;;;;;;10.55;5.40;;;;;;;21.33;37.68;101445.00;5017746;28;20045;-67
2022/02/03 08:03:47;;;;;;;7.63;5.72;;;;;;;21.53;37.48;101445.38;5021599;28;20033;-72
2022/02/03 08:06:19;;;;;;;14.45;5.22;;;;;;;21.69;37.47;101444.44;4987057;28;20033;-69
2022/02/03 08:09:00;;;;;;;11.15;5.78;;;;;;;21.73;37.45;101443.13;5010207;28;20038;-68
2022/02/03 08:11:32;;;;;;;8.55;5.50;;;;;;;21.76;37.52;101445.41;5014829;28;20044;-68
2022/02/03 08:16:43;;;;;;;10.93;5.40;;;;;;;21.70;37.78;101428.38;5012437;28;20049;-72
2022/02/03 08:22:08;;;;;;;7.07;5.30;;;;;;;21.78;37.92;101424.03;5022707;28;20049;-71
2022/02/03 08:27:34;;;;;;;9.48;5.38;;;;;;;21.62;38.10;101414.38;5017868;28;20365;-66
2022/02/03 08:32:48;;;;;;;10.07;6.40;;;;;;;21.71;38.07;101411.47;5024971;28;20479;-70
2022/02/03 08:35:35;;;;;;;6.57;4.90;;;;;;;21.75;38.41;101401.34;4997534;28;20491;-70
2022/02/03 08:38:14;;;;;;;7.35;5.40;;;;;;;21.74;38.40;101404.19;5019722;28;20118;-67
2022/02/03 08:43:19;;;;;;;7.93;5.40;;;;;;;21.81;38.08;101395.31;5022639;28;20293;-66
2022/02/03 08:45:46;;;;;;;9.48;5.53;;;;;;;21.85;38.17;101404.56;4995482;28;20238;-66
2022/02/03 08:48:13;;;;;;;8.48;5.05;;;;;;;21.81;38.18;101395.31;5022513;28;20037;-68
2022/02/03 08:50:39;;;;;;;9.18;5.75;;;;;;;21.82;37.87;101420.00;4997703;28;20053;-71
2022/02/03 08:53:11;;;;;;;7.45;5.95;;;;;;;21.53;38.37;101418.06;5018387;28;20609;-64
2022/02/03 09:28:27;;;;;;;9.48;4.93;;;;;;;21.87;38.21;101396.41;5014913;28;20209;-69
2022/02/03 10:02:43;;;;;;;8.13;5.18;;;;;;;21.64;39.44;101425.59;4978961;28;20431;-62
2022/02/03 10:05:31;;;;;;;;;;;;;;;21.65;39.31;101435.22;5009171;28;20602;-62
2022/02/03 10:07:56;;;;;;;7.80;5.15;;;;;;;21.62;39.24;101430.28;4986324;28;19917;-62
2022/02/03 10:10:22;;;;;;;8.40;4.70;;;;;;;21.62;38.86;101420.50;5007754;28;20791;-62
2022/02/03 10:12:50;;;;;;;9.15;4.93;;;;;;;21.60;39.12;101427.78;4985798;28;20038;-61
2022/02/03 10:15:18;;;;;;;8.38;5.22;;;;;;;21.57;38.95;101419.38;5007694;28;20049;-61
2022/02/03 10:17:46;;;;;;;7.97;4.82;;;;;;;21.46;38.96;101425.91;4983710;28;20064;-61
2022/02/03 10:20:16;;;;;;;6.55;5.03;;;;;;;21.31;39.51;101430.28;5001051;28;20073;-61
2022/02/03 10:22:49;;;;;;;8.82;5.28;;;;;;;21.23;39.48;101438.28;5008653;28;20108;-61
2022/02/03 10:25:22;;;;;;;7.20;4.82;;;;;;;21.21;39.44;101434.97;4984864;28;20033;-61
2022/02/03 10:27:58;;;;;;;8.50;4.72;;;;;;;21.22;39.38;101426.03;5006071;28;20961;-61
2022/02/03 10:30:26;;;;;;;7.80;5.65;;;;;;;21.24;39.20;101422.25;4987812;28;20123;-61
2022/02/03 10:32:53;;;;;;;6.97;4.45;;;;;;;21.23;39.44;101402.00;5007027;28;20107;-61
2022/02/03 10:35:27;;;;;;;7.70;5.30;;;;;;;21.25;39.30;101413.28;4977503;28;20052;-61
2022/02/03 10:38:07;;;;;;;6.47;4.57;;;;;;;21.21;39.30;101411.13;5009654;28;20799;-61
2022/02/03 10:41:08;;;;;;;8.43;5.22;;;;;;;21.19;39.27;101410.50;4985580;28;20121;-61
2022/02/03 10:46:42;;;;;;;9.07;5.20;;;;;;;21.24;38.86;101397.53;4985004;28;20052;-61
2022/02/03 10:54:24;;;;;;;9.73;4.43;;;;;;;21.05;39.34;101374.97;5007232;28;20049;-62
2022/02/03 11:05:18;;;;;;;8.75;5.10;;;;;;;20.96;39.34;101371.53;5010365;28;20453;-61
2022/02/03 11:07:31;;;;;;;7.35;4.43;;;;;;;20.79;39.71;101365.50;4986643;28;20057;-62
2022/02/03 11:10:10;;;;;;;8.25;5.00;;;;;;;20.83;39.89;101354.59;5008813;28;20391;-64
2022/02/03 11:12:37;;;;;;;6.07;4.47;;;;;;;21.18;39.15;101346.06;4997909;28;20065;-70
2022/02/03 11:15:04;;;;;;;7.72;4.53;;;;;;;21.30;39.04;101350.00;5019749;28;20037;-65
2022/02/03 11:17:32;;;;;;;9.32;5.13;;;;;;;21.29;39.22;101342.25;4999477;28;20571;-75
2022/02/03 11:20:04;;;;;;;6.85;4.65;;;;;;;21.17;39.72;101344.44;4996889;28;20533;-67
2022/02/03 11:22:43;;;;;;;6.30;4.43;;;;;;;21.20;39.57;101324.75;5000804;28;20043;-65
2022/02/03 11:25:21;;;;;;;8.13;4.87;;;;;;;21.29;39.52;101326.34;4998665;28;20048;-68
2022/02/03 11:28:08;;;;;;;8.48;5.00;;;;;;;21.34;39.59;101326.63;5010172;28;20033;-70
2022/02/03 11:47:00;;;;;;;8.10;4.80;;;;;;;21.39;40.01;101295.97;4999783;28;20049;-73
2022/02/03 11:56:05;;;;;;;5.70;4.78;;;;;;;21.38;39.68;101281.09;5009965;28;20129;-70
2022/02/03 11:58:43;;;;;;;9.30;4.93;;;;;;;21.20;39.91;101254.06;5017626;28;20094;-69
2022/02/03 12:26:14;;;;;;;6.68;5.35;;;;;;;21.13;39.51;101231.91;5012796;28;20045;-60
2022/02/03 12:28:51;;;;;;;6.70;4.70;;;;;;;21.10;39.65;101233.09;4991126;28;20095;-61
2022/02/03 12:41:50;;;;;;;9.35;4.85;;;;;;;21.32;39.56;101223.50;5004443;28;20037;-66
2022/02/03 12:44:21;;;;;;;6.53;4.55;;;;;;;21.34;39.71;101212.72;5013035;28;20766;-67
2022/02/03 12:46:47;;;;;;;6.13;4.93;;;;;;;21.43;39.25;101222.25;4979425;28;20475;-66
2022/02/03 12:49:13;;;;;;;6.90;5.00;;;;;;;21.37;39.52;101217.69;5011035;28;20095;-67
2022/02/03 12:51:38;;;;;;;8.52;4.90;;;;;;;21.44;39.61;101225.72;4993845;28;20053;-69
2022/02/03 12:54:16;;;;;;;9.68;5.15;;;;;;;21.46;39.76;101216.59;5010325;28;20045;-68
2022/02/03 12:56:42;;;;;;;7.53;4.82;;;;;;;21.45;39.71;101212.28;4981716;28;20049;-74
2022/02/03 12:59:13;;;;;;;7.40;4.78;;;;;;;21.45;39.61;101209.63;5012481;28;20037;-69
2022/02/03 13:01:41;;;;;;;6.90;4.72;;;;;;;21.47;39.53;101207.63;5002818;28;20045;-66
2022/02/03 13:04:18;;;;;;;7.85;5.25;;;;;;;21.47;39.75;101198.84;5012738;28;20372;-66
2022/02/03 13:06:57;;;;;;;6.53;4.72;;;;;;;21.46;39.76;101200.69;4989994;28;20085;-67
2022/02/03 13:09:32;;;;;;;5.70;4.95;;;;;;;21.51;39.80;101197.47;5010421;28;20469;-68
2022/02/03 13:12:21;;;;;;;8.20;5.05;;;;;;;21.42;39.74;101194.94;4977819;28;20849;-60
2022/02/03 13:14:56;;;;;;;7.80;4.70;;;;;;;21.34;39.91;101191.53;5013269;28;20701;-60
2022/02/03 13:17:28;;;;;;;6.63;5.28;;;;;;;21.27;40.04;101194.09;4991490;28;20476;-61
2022/02/03 13:20:06;;;;;;;6.85;5.20;;;;;;;21.35;39.67;101194.00;5013549;28;20079;-64
2022/02/03 13:22:41;;;;;;;5.50;4.88;;;;;;;21.43;39.87;101198.41;4987994;28;20037;-66
2022/02/03 13:27:54;;;;;;;5.75;4.78;;;;;;;21.51;39.90;101193.00;4996832;28;20049;-67
2022/02/03 13:30:32;;;;;;;5.20;4.43;;;;;;;21.54;39.66;101191.81;5012872;28;20084;-72
2022/02/03 13:33:01;;;;;;;5.45;4.40;;;;;;;21.52;39.87;101178.75;5018243;28;20033;-67
2022/02/03 13:35:42;;;;;;;8.38;4.78;;;;;;;21.57;39.96;101183.53;4984349;28;20055;-65
2022/02/03 13:38:18;;;;;;;6.47;4.45;;;;;;;21.46;40.08;101174.19;5013955;28;20049;-62
2022/02/03 13:40:44;;;;;;;7.45;4.53;;;;;;;21.29;40.10;101176.19;4992369;28;25248;-61
2022/02/03 13:43:13;;;;;;;7.50;4.93;;;;;;;21.18;40.45;101171.28;5018625;28;20491;-61
2022/02/03 13:45:41;;;;;;;8.40;5.47;;;;;;;21.22;41.06;101172.59;4994865;28;20081;-69
2022/02/03 13:48:17;;;;;;;7.53;4.75;;;;;;;21.26;40.55;101162.47;5013950;28;20033;-69
2022/02/03 13:50:55;;;;;;;6.78;4.63;;;;;;;21.36;40.33;101166.53;4995431;28;20569;-66
2022/02/03 13:53:29;;;;;;;7.85;4.63;;;;;;;21.44;40.15;101149.72;5001883;28;20487;-73
2022/02/03 14:15:55;;;;;;;6.07;4.65;;;;;;;21.68;39.99;101154.72;4985215;28;20084;-65
2022/02/03 14:21:07;;;;;;;5.05;4.35;;;;;;;21.70;39.50;101150.06;5020352;28;20068;-68
2022/02/03 14:29:10;;;;;;;4.93;4.30;;;;;;;21.73;39.91;101137.47;5013166;28;20057;-63
2022/02/03 14:31:36;;;;;;;7.05;4.90;;;;;;;21.67;40.16;101134.53;5001401;28;20053;-65
2022/02/03 14:34:07;;;;;;;4.85;4.20;;;;;;;21.66;40.15;101124.09;5012864;28;20025;-64
2022/02/03 14:36:33;;;;;;;7.70;3.92;;;;;;;21.73;39.82;101125.03;4996171;28;20053;-67
2022/02/03 14:39:13;;;;;;;4.80;3.88;;;;;;;21.70;39.99;101115.59;5016719;28;20057;-67
2022/02/03 14:41:44;;;;;;;6.50;4.55;;;;;;;21.74;40.09;101129.31;4994998;28;20045;-69
2022/02/03 14:44:11;;;;;;;4.93;4.00;;;;;;;21.71;39.99;101127.84;5017618;28;20849;-65
2022/02/03 14:46:36;;;;;;;6.18;4.43;;;;;;;21.70;40.02;101131.50;4987126;28;20059;-67
2022/02/03 14:49:03;;;;;;;4.20;3.80;;;;;;;21.72;40.09;101131.31;5016712;28;20057;-66
2022/02/03 14:51:33;;;;;;;5.28;4.32;;;;;;;21.69;39.99;101126.38;4997943;28;20037;-68
2022/02/03 14:59:11;;;;;;;4.70;3.97;;;;;;;21.79;40.01;101116.34;4998898;28;20092;-66
2022/02/03 15:01:38;;;;;;;5.32;4.15;;;;;;;21.74;40.03;101124.03;5013104;28;20034;-67
2022/02/03 15:04:10;;;;;;;5.50;4.20;;;;;;;21.71;40.01;101116.41;4981918;28;20045;-68
2022/02/03 15:06:40;;;;;;;4.75;3.95;;;;;;;21.72;39.98;101115.41;5008566;28;20034;-63
2022/02/03 15:09:20;;;;;;;6.95;4.50;;;;;;;21.70;40.34;101114.78;4984665;28;20072;-63
2022/02/03 15:14:12;;;;;;;5.35;3.70;;;;;;;21.75;39.71;101093.84;4988522;28;20056;-62
2022/02/03 15:16:38;;;;;;;5.38;4.30;;;;;;;21.52;40.04;101078.06;5009638;28;20065;-62
2022/02/03 15:19:05;;;;;;;7.15;4.07;;;;;;;21.41;40.40;101087.31;5008965;28;20068;-62
2022/02/03 15:21:31;;;;;;;4.40;3.67;;;;;;;21.31;40.39;101083.28;5001907;28;20045;-62
2022/02/03 15:23:57;;;;;;;5.90;3.90;;;;;;;21.29;40.54;101077.34;5016299;28;20030;-62
2022/02/03 15:26:22;;;;;;;6.10;4.43;;;;;;;21.23;40.56;101088.66;4990619;28;20037;-62
2022/02/03 15:28:48;;;;;;;4.72;4.10;;;;;;;21.15;40.72;101084.25;5018597;28;20767;-62
2022/02/03 15:31:15;;;;;;;4.65;3.80;;;;;;;21.13;40.78;101088.91;4991425;28;20822;-62
2022/02/03 15:33:45;;;;;;;4.93;3.75;;;;;;;21.15;40.66;101091.38;5029665;28;20060;-62
2022/02/03 15:36:13;;;;;;;5.00;4.00;;;;;;;21.08;40.71;101094.75;4993679;28;20513;-62
2022/02/03 15:38:45;;;;;;;4.68;3.75;;;;;;;21.03;40.83;101086.56;5018814;28;20526;-62
2022/02/03 15:41:19;;;;;;;5.53;3.92;;;;;;;21.03;40.63;101083.91;4995600;28;20049;-63
2022/02/03 15:43:45;;;;;;;5.00;4.07;;;;;;;20.95;40.79;101086.63;5017822;28;20487;-62
2022/02/03 15:46:13;;;;;;;5.20;4.22;;;;;;;20.97;40.84;101099.66;4988777;28;20034;-62
2022/02/03 15:48:49;;;;;;;4.57;3.65;;;;;;;20.95;40.73;101091.09;5016033;28;20038;-62
2022/02/03 16:18:13;;;;;;;4.53;3.65;;;;;;;21.30;40.94;101082.47;4983242;28;20060;-67
2022/02/03 16:20:53;;;;;;;5.00;3.50;;;;;;;21.35;41.01;101085.38;5015991;28;20782;-66
2022/02/03 16:23:45;;;;;;;5.70;3.75;;;;;;;21.35;41.17;101079.25;5001922;28;20037;-69
2022/02/03 16:52:59;;;;;;;5.40;3.92;;;;;;;20.91;41.05;101066.00;5015955;28;20124;-63
2022/02/03 16:55:30;;;;;;;5.78;3.90;;;;;;;20.89;41.12;101060.06;5001297;28;20273;-65
2022/02/03 16:57:57;;;;;;;4.75;4.13;;;;;;;20.83;41.05;101055.50;5010045;28;20459;-65
2022/02/03 17:00:24;;;;;;;4.63;3.88;;;;;;;20.85;41.00;101062.25;4985898;28;20053;-63
2022/02/03 17:02:51;;;;;;;6.22;3.83;;;;;;;20.83;41.04;101053.66;5014316;28;20498;-62
2022/02/03 17:05:17;;;;;;;4.63;4.05;;;;;;;20.78;41.17;101056.00;4998087;28;20045;-64
2022/02/03 17:07:43;;;;;;;6.22;4.20;;;;;;;20.75;41.11;101066.97;4999244;28;20038;-64
2022/02/03 17:10:09;;;;;;;4.82;4.18;;;;;;;20.72;41.08;101062.84;5016001;28;20046;-64
2022/02/03 17:12:35;;;;;;;4.57;3.80;;;;;;;20.69;41.11;101065.03;4991173;28;20057;-64
2022/02/03 17:15:00;;;;;;;6.05;4.10;;;;;;;20.70;41.22;101064.88;5015394;28;20057;-64
2022/02/03 17:17:26;;;;;;;7.38;3.85;;;;;;;20.71;41.12;101065.69;4996367;28;20046;-64
2022/02/03 17:19:52;;;;;;;5.35;3.80;;;;;;;20.63;41.24;101063.91;5013541;28;20048;-63
2022/02/03 17:22:24;;;;;;;4.13;3.72;;;;;;;20.61;41.33;101062.47;4986623;28;20049;-61
2022/02/03 17:25:05;;;;;;;4.68;3.80;;;;;;;20.60;41.16;101053.69;5017000;28;20164;-62
2022/02/03 17:27:40;;;;;;;4.93;4.10;;;;;;;20.63;41.13;101055.16;4993561;28;20281;-62
2022/02/03 17:30:12;;;;;;;5.05;4.05;;;;;;;20.67;41.10;101062.59;5015759;28;20028;-63
2022/02/03 18:29:53;;;;;;;5.15;3.63;;;;;;;21.31;40.48;101064.75;4992303;28;20132;-63
2022/02/03 18:35:22;;;;;;;5.72;4.05;;;;;;;21.24;40.35;101062.03;5010298;28;20505;-62
2022/02/03 18:51:34;;;;;;;8.23;4.65;;;;;;;21.31;40.04;101075.34;5015230;28;20052;-64
2022/02/03 18:54:14;;;;;;;5.63;4.30;;;;;;;21.23;40.38;101078.88;4993457;28;20088;-65
2022/02/03 18:56:57;;;;;;;;;;;;;;;21.13;40.36;101075.69;5013890;28;20104;-64
2022/02/03 19:56:41;;;;;;;5.30;3.60;;;;;;;20.62;40.82;101066.75;5004993;28;20150;-63
2022/02/03 20:11:31;;;;;;;5.13;3.70;;;;;;;20.48;41.08;101066.56;5003412;28;20696;-65
2022/02/03 20:13:56;;;;;;;5.55;3.40;;;;;;;20.46;41.11;101073.81;5012076;28;20045;-65
2022/02/03 20:16:23;;;;;;;5.63;3.50;;;;;;;20.54;40.91;101074.78;4984567;28;20048;-64
2022/02/03 20:18:49;;;;;;;6.63;3.95;;;;;;;20.52;41.06;101072.31;5012322;28;20060;-64
2022/02/03 20:21:14;;;;;;;7.07;3.42;;;;;;;20.55;40.96;101074.59;4986215;28;20037;-64
2022/02/03 20:23:44;;;;;;;6.45;3.60;;;;;;;20.50;40.84;101064.53;5012619;28;20550;-64
2022/02/03 20:26:11;;;;;;;;;;;;;;;20.54;40.86;101067.66;4976823;28;20036;-64
2022/02/03 20:28:36;;;;;;;5.32;3.20;;;;;;;20.49;40.94;101054.16;5016970;28;20350;-65
2022/02/03 20:31:02;;;;;;;5.75;3.60;;;;;;;20.53;40.86;101063.38;5014128;28;20037;-65
2022/02/03 20:33:27;;;;;;;6.25;4.15;;;;;;;20.57;40.85;101058.53;4986269;28;20041;-62
2022/02/03 20:35:53;;;;;;;4.47;3.45;;;;;;;20.52;41.18;101057.25;5028446;28;20966;-65
2022/02/03 20:38:20;;;;;;;6.63;3.92;;;;;;;20.56;40.73;101055.06;4982395;28;22089;-63
2022/02/03 20:40:46;;;;;;;8.23;3.80;;;;;;;20.54;40.80;101056.25;5019539;28;20202;-65
2022/02/03 20:43:13;;;;;;;6.18;3.70;;;;;;;20.52;40.85;101051.97;4968295;28;20399;-65
2022/02/03 20:45:43;;;;;;;4.55;3.22;;;;;;;20.50;40.81;101045.22;5018746;28;20043;-65
2022/02/03 20:48:09;;;;;;;6.05;3.60;;;;;;;20.50;40.90;101048.69;4983918;28;20131;-62
2022/02/03 20:50:36;;;;;;;5.78;3.47;;;;;;;20.51;40.86;101047.66;5015167;28;20695;-65
2022/02/03 20:53:03;;;;;;;7.80;4.30;;;;;;;20.51;40.85;101044.22;4986046;28;20045;-64
2022/02/03 20:55:28;;;;;;;4.32;3.60;;;;;;;20.52;40.77;101040.56;5015765;28;20037;-64
2022/02/03 20:57:54;;;;;;;5.78;3.60;;;;;;;20.49;40.81;101044.38;4984412;28;20106;-64
2022/02/03 21:02:58;;;;;;;5.38;3.65;;;;;;;20.48;40.90;101045.38;5011868;28;20038;-63
2022/02/03 21:05:23;;;;;;;9.43;3.70;;;;;;;20.43;40.92;101036.31;4986605;28;20049;-63
2022/02/03 21:07:50;;;;;;;7.43;3.55;;;;;;;20.43;41.05;101038.97;5015009;28;20053;-62
2022/02/03 21:10:22;;;;;;;5.80;3.50;;;;;;;20.40;40.88;101032.19;4984163;28;20049;-63
2022/02/03 21:12:47;;;;;;;6.72;3.50;;;;;;;20.39;40.94;101027.91;5013445;28;20041;-62
2022/02/03 21:15:22;;;;;;;6.07;3.85;;;;;;;20.42;40.82;101029.38;4970583;28;20390;-61
2022/02/03 21:17:48;;;;;;;8.23;4.65;;;;;;;20.44;40.79;101024.75;5013744;28;20461;-63
2022/02/03 21:20:17;;;;;;;8.60;3.95;;;;;;;20.45;40.69;101032.50;4989842;28;20073;-63
2022/02/03 21:22:42;;;;;;;7.75;4.07;;;;;;;20.43;40.76;101031.84;5015144;28;20397;-64
2022/02/03 21:25:45;;;;;;;6.68;3.80;;;;;;;20.40;40.87;101034.00;4994986;28;20587;-63
2022/02/03 21:28:12;;;;;;;9.18;3.65;;;;;;;20.36;40.83;101033.53;5012817;28;20049;-62
2022/02/03 21:30:38;;;;;;;5.38;3.38;;;;;;;20.39;40.87;101033.19;4981247;28;20045;-62
2022/02/03 21:33:06;;;;;;;8.32;3.55;;;;;;;20.42;40.70;101030.22;5016601;28;20494;-65
2022/02/03 21:35:32;;;;;;;5.95;3.58;;;;;;;20.40;40.81;101032.19;4988578;28;20075;-65
2022/02/03 21:37:58;;;;;;;5.65;3.53;;;;;;;20.37;40.79;101029.09;5015614;28;21005;-65
2022/02/03 21:40:23;;;;;;;8.38;3.40;;;;;;;20.31;40.97;101027.97;4995483;28;20911;-63
2022/02/03 21:42:50;;;;;;;6.18;3.38;;;;;;;20.32;40.91;101036.72;5014122;28;20068;-63
2022/02/03 21:45:18;;;;;;;5.53;3.40;;;;;;;20.34;40.63;101030.25;5002450;28;20045;-65
2022/02/03 21:47:45;;;;;;;7.55;3.35;;;;;;;20.38;40.64;101036.00;5002761;28;20136;-65
2022/02/03 21:50:11;;;;;;;5.35;3.38;;;;;;;20.40;40.68;101037.47;5019045;28;20129;-65
2022/02/03 21:52:44;;;;;;;5.10;3.50;;;;;;;20.36;40.77;101028.25;4990072;28;20049;-64
2022/02/03 21:55:10;;;;;;;4.90;3.63;;;;;;;20.37;40.78;101035.19;5016136;28;20048;-65
2022/02/03 21:57:42;;;;;;;6.43;3.63;;;;;;;20.37;40.77;101032.53;4990815;28;20045;-65
2022/02/03 22:00:10;;;;;;;7.22;3.70;;;;;;;20.38;40.71;101033.38;5015539;28;20462;-65
2022/02/03 22:02:38;;;;;;;6.30;3.60;;;;;;;20.27;40.71;101021.38;4980260;28;20052;-65
2022/02/03 22:05:06;;;;;;;5.22;3.53;;;;;;;20.32;40.77;101024.34;5017691;28;20029;-65
2022/02/03 22:07:33;;;;;;;8.05;3.80;;;;;;;20.30;40.77;101023.69;4993134;28;20042;-65
2022/02/03 22:09:59;;;;;;;7.30;3.72;;;;;;;20.25;41.00;101014.63;5010695;28;20041;-65
2022/02/03 22:12:25;;;;;;;6.65;3.60;;;;;;;20.45;40.81;101019.28;4991951;28;20321;-67
2022/02/03 22:14:50;;;;;;;7.07;3.90;;;;;;;20.48;41.08;101013.66;5021994;28;20033;-69
2022/02/03 22:17:16;;;;;;;6.20;3.80;;;;;;;20.54;41.07;101011.28;5000327;28;20771;-68
2022/02/03 22:19:48;;;;;;;7.50;3.85;;;;;;;20.54;41.20;101011.28;5005948;28;20056;-68
2022/02/03 22:22:33;;;;;;;6.57;3.60;;;;;;;20.60;41.19;101011.38;5012516;28;20040;-67
2022/02/03 22:27:41;;;;;;;8.75;3.35;;;;;;;20.71;41.03;101018.88;5016428;28;20531;-65
2022/02/03 22:48:30;;;;;;;6.88;4.00;;;;;;;20.93;40.59;101011.84;5015731;28;20567;-69